createdAt,value
2018-09-02T00:01:40.244Z,58.59
2018-09-02T00:03:45.343Z,58.94
2018-09-02T00:05:56.802Z,58.97
2018-09-02T00:08:01.999Z,59.40
2018-09-02T00:10:08.238Z,59.08
2018-09-02T00:12:12.925Z,59.58
2018-09-02T00:14:17.768Z,58.86
2018-09-02T00:16:22.942Z,59.43
2018-09-02T00:18:27.732Z,59.29
2018-09-02T00:20:32.596Z,59.88
2018-09-02T00:22:37.396Z,59.89
2018-09-02T00:24:42.143Z,60.05
2018-09-02T00:26:46.942Z,60.28
2018-09-02T00:28:51.736Z,60.48
2018-09-02T00:30:56.676Z,60.69
2018-09-02T00:33:01.692Z,60.95
2018-09-02T00:35:06.812Z,60.25
2018-09-02T00:37:11.607Z,60.78
2018-09-02T00:39:16.613Z,60.57
2018-09-02T00:41:21.433Z,60.78
2018-09-02T00:43:26.298Z,60.35
2018-09-02T00:45:31.372Z,60.64
2018-09-02T00:47:36.495Z,60.58
2018-09-02T00:49:41.442Z,60.83
2018-09-02T00:51:46.208Z,61.05
2018-09-02T00:53:51.143Z,60.95
2018-09-02T00:55:55.996Z,60.50
2018-09-02T00:58:01.003Z,61.21
2018-09-02T01:00:06.541Z,60.73
2018-09-02T01:02:11.325Z,61.14
2018-09-02T01:04:18.053Z,61.05
2018-09-02T01:06:22.877Z,61.07
2018-09-02T01:08:28.451Z,60.87
2018-09-02T01:10:34.862Z,61.08
2018-09-02T01:12:39.774Z,61.25
2018-09-02T01:14:44.631Z,61.26
2018-09-02T01:16:49.614Z,61.20
2018-09-02T01:18:54.625Z,61.06
2018-09-02T01:20:59.406Z,61.08
2018-09-02T01:23:04.369Z,61.05
2018-09-02T01:25:09.217Z,61.12
2018-09-02T01:27:14.144Z,61.43
2018-09-02T01:29:19.467Z,61.38
2018-09-02T01:31:24.399Z,61.67
2018-09-02T01:33:29.858Z,61.80
2018-09-02T01:35:35.499Z,61.66
2018-09-02T01:37:40.300Z,62.09
2018-09-02T01:39:45.253Z,61.45
2018-09-02T01:41:50.727Z,61.63
2018-09-02T01:43:57.189Z,61.55
2018-09-02T01:46:02.096Z,61.58
2018-09-02T01:48:07.143Z,61.62
2018-09-02T01:50:11.952Z,62.46
2018-09-02T01:52:16.763Z,62.15
2018-09-02T01:54:21.813Z,62.14
2018-09-02T01:56:26.704Z,62.69
2018-09-02T01:58:31.803Z,62.07
2018-09-02T02:00:36.681Z,62.54
2018-09-02T02:02:41.655Z,61.93
2018-09-02T02:04:46.580Z,62.07
2018-09-02T02:06:51.668Z,60.83
2018-09-02T02:08:56.389Z,60.71
2018-09-02T02:11:01.225Z,61.56
2018-09-02T02:13:06.298Z,62.30
2018-09-02T02:15:11.013Z,62.89
2018-09-02T02:17:15.827Z,62.32
2018-09-02T02:19:20.803Z,62.21
2018-09-02T02:21:25.783Z,61.70
2018-09-02T02:23:30.606Z,62.01
2018-09-02T02:25:35.667Z,62.08
2018-09-02T02:27:40.486Z,61.93
2018-09-02T02:29:45.517Z,61.96
2018-09-02T02:31:50.415Z,62.32
2018-09-02T02:33:55.286Z,62.62
2018-09-02T02:36:00.441Z,62.54
2018-09-02T02:38:05.681Z,62.78
2018-09-02T02:40:10.498Z,62.54
2018-09-02T02:42:15.688Z,62.98
2018-09-02T02:44:20.653Z,62.66
2018-09-02T02:46:25.762Z,63.18
2018-09-02T02:48:30.745Z,63.55
2018-09-02T02:50:35.723Z,63.08
2018-09-02T02:52:45.713Z,63.25
2018-09-02T02:54:50.549Z,63.48
2018-09-02T02:56:55.562Z,63.57
2018-09-02T02:59:00.445Z,63.76
2018-09-02T03:01:05.291Z,63.46
2018-09-02T03:03:10.079Z,63.50
2018-09-02T03:05:14.877Z,63.41
2018-09-02T03:07:19.594Z,63.17
2018-09-02T03:09:24.849Z,63.30
2018-09-02T03:11:29.750Z,63.19
2018-09-02T03:13:34.828Z,63.47
2018-09-02T03:15:39.781Z,63.63
2018-09-02T03:17:44.806Z,63.58
2018-09-02T03:19:49.750Z,63.63
2018-09-02T03:21:54.601Z,64.09
2018-09-02T03:23:59.639Z,63.75
2018-09-02T03:26:04.551Z,63.37
2018-09-02T03:28:10.325Z,63.43
2018-09-02T03:30:15.508Z,63.58
2018-09-02T03:32:20.359Z,63.96
2018-09-02T03:34:25.270Z,64.13
2018-09-02T03:36:30.214Z,64.33
2018-09-02T03:38:35.153Z,64.54
2018-09-02T03:40:40.092Z,64.37
2018-09-02T03:42:45.782Z,64.42
2018-09-02T03:44:50.687Z,64.28
2018-09-02T03:46:55.667Z,64.73
2018-09-02T03:49:00.658Z,64.29
2018-09-02T03:51:05.544Z,64.51
2018-09-02T03:53:10.449Z,64.56
2018-09-02T03:55:15.360Z,64.87
2018-09-02T03:57:20.152Z,64.52
2018-09-02T03:59:25.867Z,64.78
2018-09-02T04:01:30.856Z,65.33
2018-09-02T04:03:35.712Z,65.26
2018-09-02T04:05:40.622Z,65.32
2018-09-02T04:07:45.415Z,65.17
2018-09-02T04:09:50.323Z,65.60
2018-09-02T04:11:55.488Z,65.82
2018-09-02T04:14:00.385Z,65.47
2018-09-02T04:16:05.524Z,66.10
2018-09-02T04:18:10.544Z,66.05
2018-09-02T04:20:19.554Z,65.94
2018-09-02T04:22:25.168Z,66.07
2018-09-02T04:24:30.709Z,66.38
2018-09-02T04:26:45.264Z,66.27
2018-09-02T04:28:50.275Z,66.01
2018-09-02T04:30:55.542Z,66.15
2018-09-02T04:33:00.787Z,66.07
2018-09-02T04:35:06.240Z,65.65
2018-09-02T04:37:11.233Z,66.19
2018-09-02T04:39:16.435Z,65.90
2018-09-02T04:41:21.922Z,65.72
2018-09-02T04:43:27.208Z,65.67
2018-09-02T04:45:32.365Z,65.40
2018-09-02T04:47:37.430Z,65.53
2018-09-02T04:49:42.218Z,65.54
2018-09-02T04:51:47.589Z,65.95
2018-09-02T04:53:52.831Z,65.85
2018-09-02T04:55:57.698Z,65.50
2018-09-02T04:58:02.625Z,65.69
2018-09-02T05:00:08.436Z,65.17
2018-09-02T05:02:13.449Z,65.39
2018-09-02T05:04:18.358Z,65.41
2018-09-02T05:06:23.244Z,65.24
2018-09-02T05:08:28.201Z,65.26
2018-09-02T05:10:33.120Z,65.66
2018-09-02T05:12:37.931Z,65.12
2018-09-02T05:14:43.016Z,65.09
2018-09-02T05:16:47.821Z,65.12
2018-09-02T05:18:52.618Z,64.96
2018-09-02T05:20:57.614Z,65.38
2018-09-02T05:23:02.518Z,65.37
2018-09-02T05:25:07.410Z,65.43
2018-09-02T05:27:12.211Z,65.15
2018-09-02T05:29:17.054Z,65.47
2018-09-02T05:31:21.958Z,65.26
2018-09-02T05:33:26.808Z,65.21
2018-09-02T05:35:31.674Z,65.55
2018-09-02T05:37:36.497Z,65.55
2018-09-02T05:39:41.822Z,65.53
2018-09-02T05:41:46.592Z,65.46
2018-09-02T05:43:51.505Z,65.38
2018-09-02T05:45:56.366Z,65.34
2018-09-02T05:48:01.366Z,65.75
2018-09-02T05:50:06.269Z,65.63
2018-09-02T05:52:11.129Z,65.18
2018-09-02T05:54:15.993Z,65.24
2018-09-02T05:56:20.827Z,65.00
2018-09-02T05:58:25.695Z,64.87
2018-09-02T06:00:30.521Z,65.09
2018-09-02T06:02:35.423Z,65.44
2018-09-02T06:04:40.310Z,65.17
2018-09-02T06:06:45.219Z,64.80
2018-09-02T06:08:49.980Z,64.75
2018-09-02T06:10:54.929Z,64.83
2018-09-02T06:12:59.848Z,64.77
2018-09-02T06:15:04.719Z,64.84
2018-09-02T06:17:09.724Z,64.94
2018-09-02T06:19:14.532Z,64.60
2018-09-02T06:21:19.457Z,64.85
2018-09-02T06:23:24.429Z,64.42
2018-09-02T06:25:31.646Z,64.47
2018-09-02T06:27:36.525Z,64.35
2018-09-02T06:29:41.401Z,63.96
2018-09-02T06:31:46.362Z,63.59
2018-09-02T06:33:51.892Z,63.43
2018-09-02T06:35:57.939Z,63.65
2018-09-02T06:38:04.241Z,63.50
2018-09-02T06:40:09.493Z,63.14
2018-09-02T06:42:14.505Z,63.19
2018-09-02T06:44:19.621Z,63.11
2018-09-02T06:46:25.451Z,62.99
2018-09-02T06:48:32.043Z,62.64
2018-09-02T06:50:38.050Z,62.53
2018-09-02T06:52:42.937Z,62.75
2018-09-02T06:54:47.841Z,62.68
2018-09-02T06:56:52.781Z,62.39
2018-09-02T06:58:57.529Z,62.68
2018-09-02T07:01:02.707Z,62.26
2018-09-02T07:03:09.751Z,62.04
2018-09-02T07:05:14.642Z,62.28
2018-09-02T07:07:19.457Z,61.35
2018-09-02T07:09:24.204Z,61.23
2018-09-02T07:11:29.538Z,60.83
2018-09-02T07:13:35.085Z,60.28
2018-09-02T07:15:43.062Z,60.28
2018-09-02T07:17:47.801Z,60.13
2018-09-02T07:19:52.702Z,59.43
2018-09-02T07:21:57.522Z,58.73
2018-09-02T07:24:02.285Z,58.49
2018-09-02T07:26:07.254Z,58.77
2018-09-02T07:28:11.974Z,58.59
2018-09-02T07:30:16.766Z,58.35
2018-09-02T07:32:22.271Z,58.12
2018-09-02T07:34:27.178Z,58.23
2018-09-02T07:36:32.021Z,57.97
2018-09-02T07:38:37.089Z,58.01
2018-09-02T07:40:41.997Z,57.55
2018-09-02T07:42:47.065Z,57.29
2018-09-02T07:44:52.104Z,57.15
2018-09-02T07:46:57.820Z,57.13
2018-09-02T07:49:02.937Z,56.51
2018-09-02T07:51:07.934Z,55.14
2018-09-02T07:53:12.921Z,55.19
2018-09-02T07:55:17.718Z,54.07
2018-09-02T07:57:28.359Z,53.10
2018-09-02T07:59:33.521Z,52.91
2018-09-02T08:01:38.447Z,52.72
2018-09-02T08:03:43.487Z,52.52
2018-09-02T08:05:48.439Z,51.61
2018-09-02T08:07:53.297Z,51.40
2018-09-02T08:09:58.432Z,51.79
2018-09-02T08:12:03.250Z,50.44
2018-09-02T08:14:08.297Z,50.26
2018-09-02T08:16:13.681Z,50.24
2018-09-02T08:18:19.062Z,50.23
2018-09-02T08:20:24.584Z,50.33
2018-09-02T08:22:30.317Z,50.29
2018-09-02T08:24:35.207Z,49.16
2018-09-02T08:26:40.368Z,48.41
2018-09-02T08:28:45.436Z,47.99
2018-09-02T08:30:50.454Z,47.47
2018-09-02T08:32:55.461Z,47.72
2018-09-02T08:35:00.473Z,46.96
2018-09-02T08:37:05.365Z,47.20
2018-09-02T08:39:11.373Z,46.96
2018-09-02T08:41:16.323Z,46.97
2018-09-02T08:43:21.090Z,46.68
2018-09-02T08:45:26.506Z,46.12
2018-09-02T08:47:31.457Z,45.97
2018-09-02T08:49:36.510Z,45.32
2018-09-02T08:51:41.459Z,45.63
2018-09-02T08:53:46.302Z,46.12
2018-09-02T08:55:51.220Z,46.02
2018-09-02T08:57:56.049Z,46.09
2018-09-02T09:00:01.823Z,45.74
2018-09-02T09:02:06.902Z,45.78
2018-09-02T09:04:11.707Z,45.59
2018-09-02T09:06:16.640Z,45.52
2018-09-02T09:08:21.708Z,45.18
2018-09-02T09:10:26.451Z,44.54
2018-09-02T09:12:31.305Z,44.92
2018-09-02T09:14:38.230Z,45.16
2018-09-02T09:16:43.289Z,44.87
2018-09-02T09:18:48.266Z,43.33
2018-09-02T09:20:53.311Z,43.01
2018-09-02T09:22:58.347Z,42.87
2018-09-02T09:25:03.337Z,41.91
2018-09-02T09:27:08.479Z,42.14
2018-09-02T09:29:14.125Z,41.93
2018-09-02T09:31:20.289Z,41.85
2018-09-02T09:33:25.107Z,40.98
2018-09-02T09:35:29.965Z,40.90
2018-09-02T09:37:34.851Z,40.39
2018-09-02T09:39:39.716Z,39.42
2018-09-02T09:41:44.486Z,39.09
2018-09-02T09:43:49.341Z,39.82
2018-09-02T09:45:54.349Z,38.54
2018-09-02T09:47:59.246Z,38.96
2018-09-02T09:50:04.144Z,38.39
2018-09-02T09:52:09.197Z,38.28
2018-09-02T09:54:13.964Z,37.76
2018-09-02T09:56:18.814Z,36.85
2018-09-02T09:58:25.098Z,37.18
2018-09-02T10:00:36.992Z,36.68
2018-09-02T10:02:42.069Z,36.47
2018-09-02T10:04:46.866Z,36.76
2018-09-02T10:06:51.688Z,36.97
2018-09-02T10:11:09.429Z,37.06
2018-09-02T10:13:14.253Z,36.80
2018-09-02T10:15:19.070Z,36.81
2018-09-02T10:17:24.034Z,37.08
2018-09-02T10:19:28.784Z,37.23
2018-09-02T10:21:33.854Z,36.41
2018-09-02T10:23:38.858Z,36.10
2018-09-02T10:25:43.641Z,36.27
2018-09-02T10:27:48.460Z,36.05
2018-09-02T10:29:53.252Z,36.13
2018-09-02T10:31:58.045Z,35.95
2018-09-02T10:34:02.863Z,35.97
2018-09-02T10:36:08.040Z,36.30
2018-09-02T10:38:12.880Z,36.39
2018-09-02T10:40:17.668Z,35.98
2018-09-02T10:42:22.678Z,35.81
2018-09-02T10:44:27.774Z,36.01
2018-09-02T10:46:32.776Z,35.31
2018-09-02T10:48:37.798Z,35.52
2018-09-02T10:50:42.582Z,35.07
2018-09-02T10:52:47.344Z,34.82
2018-09-02T10:54:52.243Z,35.24
2018-09-02T10:56:57.315Z,35.80
2018-09-02T10:59:02.381Z,35.96
2018-09-02T11:01:07.313Z,35.86
2018-09-02T11:03:18.088Z,35.91
2018-09-02T11:05:24.847Z,35.65
2018-09-02T11:07:29.684Z,36.20
2018-09-02T11:09:34.539Z,36.22
2018-09-02T11:11:39.461Z,35.87
2018-09-02T11:13:44.393Z,36.19
2018-09-02T11:15:49.285Z,36.35
2018-09-02T11:17:54.402Z,36.08
2018-09-02T11:19:59.486Z,36.28
2018-09-02T11:22:04.762Z,36.51
2018-09-02T11:24:09.686Z,36.49
2018-09-02T11:26:14.685Z,36.50
2018-09-02T11:28:19.478Z,36.14
2018-09-02T11:30:24.384Z,36.71
2018-09-02T11:32:29.598Z,36.13
2018-09-02T11:34:34.423Z,36.25
2018-09-02T11:36:39.250Z,36.17
2018-09-02T11:38:44.079Z,35.91
2018-09-02T11:40:48.973Z,35.29
2018-09-02T11:43:00.351Z,35.20
2018-09-02T11:45:05.509Z,35.22
2018-09-02T11:47:10.662Z,35.91
2018-09-02T11:49:16.038Z,35.36
2018-09-02T11:51:20.930Z,35.24
2018-09-02T11:53:26.056Z,35.16
2018-09-02T11:55:30.890Z,35.22
2018-09-02T11:57:35.904Z,34.95
2018-09-02T11:59:40.849Z,34.80
2018-09-02T12:01:45.771Z,34.85
2018-09-02T12:03:50.796Z,34.78
2018-09-02T12:05:55.660Z,34.73
2018-09-02T12:08:00.550Z,34.89
2018-09-02T12:10:05.434Z,34.41
2018-09-02T12:12:10.290Z,35.09
2018-09-02T12:14:15.186Z,35.16
2018-09-02T12:16:21.184Z,34.90
2018-09-02T12:18:26.241Z,35.43
2018-09-02T12:20:31.045Z,35.26
2018-09-02T12:22:36.118Z,35.38
2018-09-02T12:24:40.977Z,35.53
2018-09-02T12:28:54.333Z,34.78
2018-09-02T12:30:59.137Z,34.51
2018-09-02T12:33:04.043Z,34.60
2018-09-02T12:35:08.885Z,34.79
2018-09-02T12:37:13.700Z,34.88
2018-09-02T12:39:18.387Z,34.27
2018-09-02T12:41:23.257Z,34.54
2018-09-02T12:43:28.150Z,34.91
2018-09-02T12:45:34.001Z,35.00
2018-09-02T12:47:39.844Z,34.53
2018-09-02T12:52:13.502Z,34.93
2018-09-02T12:57:10.918Z,34.13
2018-09-02T12:59:39.895Z,34.15
2018-09-02T13:02:11.571Z,33.91
2018-09-02T13:04:17.106Z,34.12
2018-09-02T13:06:22.542Z,33.93
2018-09-02T13:08:28.059Z,34.41
2018-09-02T13:10:33.480Z,34.30
2018-09-02T13:12:39.009Z,33.62
2018-09-02T13:14:44.330Z,33.65
2018-09-02T13:16:49.602Z,34.71
2018-09-02T13:18:54.818Z,33.70
2018-09-02T13:21:00.150Z,34.06
2018-09-02T13:23:05.171Z,34.30
2018-09-02T13:25:10.161Z,34.19
2018-09-02T13:27:15.232Z,34.50
2018-09-02T13:29:20.434Z,34.10
2018-09-02T13:31:25.451Z,34.43
2018-09-02T13:33:30.629Z,34.16
2018-09-02T13:35:35.870Z,33.67
2018-09-02T13:37:40.801Z,34.04
2018-09-02T13:39:45.991Z,33.70
2018-09-02T13:41:50.870Z,33.55
2018-09-02T13:43:55.589Z,33.62
2018-09-02T13:46:00.493Z,33.59
2018-09-02T13:48:05.461Z,33.41
2018-09-02T13:50:10.510Z,33.26
2018-09-02T13:52:15.411Z,33.14
2018-09-02T13:54:20.458Z,33.19
2018-09-02T13:56:25.333Z,33.14
2018-09-02T13:58:30.347Z,33.47
2018-09-02T14:00:35.242Z,33.62
2018-09-02T14:02:40.152Z,33.38
2018-09-02T14:04:45.034Z,33.19
2018-09-02T14:06:50.046Z,33.31
2018-09-02T14:08:55.144Z,33.74
2018-09-02T14:11:00.074Z,33.25
2018-09-02T14:13:04.811Z,33.33
2018-09-02T14:15:09.689Z,33.38
2018-09-02T14:17:14.606Z,33.36
2018-09-02T14:19:19.437Z,33.82
2018-09-02T14:21:24.191Z,33.79
2018-09-02T14:23:29.207Z,33.42
2018-09-02T14:25:34.284Z,32.83
2018-09-02T14:27:39.209Z,33.08
2018-09-02T14:29:45.113Z,32.68
2018-09-02T14:31:50.068Z,32.47
2018-09-02T14:33:55.119Z,32.78
2018-09-02T14:36:05.700Z,33.08
2018-09-02T14:38:10.596Z,32.86
2018-09-02T14:40:15.525Z,33.23
2018-09-02T14:42:20.384Z,33.19
2018-09-02T14:44:25.349Z,32.51
2018-09-02T14:46:30.246Z,32.78
2018-09-02T14:48:35.265Z,32.27
2018-09-02T14:50:40.078Z,32.97
2018-09-02T14:52:46.376Z,33.36
2018-09-02T14:54:53.059Z,33.25
2018-09-02T14:56:59.847Z,32.61
2018-09-02T14:59:05.275Z,32.95
2018-09-02T15:01:10.273Z,32.73
2018-09-02T15:03:15.158Z,32.80
2018-09-02T15:05:19.933Z,33.02
2018-09-02T15:07:25.030Z,32.75
2018-09-02T15:09:29.969Z,32.73
2018-09-02T15:11:34.851Z,32.63
2018-09-02T15:13:39.652Z,32.76
2018-09-02T15:15:44.508Z,32.82
2018-09-02T15:17:49.378Z,32.63
2018-09-02T15:19:54.637Z,32.19
2018-09-02T15:21:59.936Z,32.29
2018-09-02T15:24:05.018Z,32.35
2018-09-02T15:26:10.047Z,32.68
2018-09-02T15:28:15.006Z,31.68
2018-09-02T15:30:20.382Z,32.17
2018-09-02T15:32:25.401Z,31.95
2018-09-02T15:34:30.468Z,32.26
2018-09-02T15:36:35.504Z,31.68
2018-09-02T15:38:40.581Z,31.92
2018-09-02T15:40:45.590Z,32.35
2018-09-02T15:42:50.745Z,32.37
2018-09-02T15:44:55.653Z,32.39
2018-09-02T15:47:00.604Z,32.42
2018-09-02T15:49:05.506Z,31.99
2018-09-02T15:51:10.430Z,32.06
2018-09-02T15:53:15.195Z,32.38
2018-09-02T15:55:20.068Z,32.54
2018-09-02T15:57:25.032Z,31.75
2018-09-02T15:59:29.947Z,31.49
2018-09-02T16:01:34.781Z,31.42
2018-09-02T16:03:39.724Z,30.62
2018-09-02T16:05:44.492Z,30.72
2018-09-02T16:07:50.070Z,30.79
2018-09-02T16:09:54.838Z,29.58
2018-09-02T16:11:59.665Z,29.43
2018-09-02T16:14:04.515Z,28.90
2018-09-02T16:16:09.398Z,28.69
2018-09-02T16:18:14.270Z,28.23
2018-09-02T16:20:19.148Z,28.78
2018-09-02T16:22:24.177Z,28.63
2018-09-02T16:24:29.078Z,28.51
2018-09-02T16:26:33.852Z,28.32
2018-09-02T16:28:38.575Z,27.48
2018-09-02T16:30:43.418Z,27.29
2018-09-02T16:32:48.312Z,27.41
2018-09-02T16:34:53.203Z,27.78
2018-09-02T16:36:57.971Z,28.54
2018-09-02T16:39:03.151Z,28.22
2018-09-02T16:41:07.971Z,28.43
2018-09-02T16:43:12.897Z,29.00
2018-09-02T16:45:17.764Z,29.38
2018-09-02T16:47:22.720Z,29.77
2018-09-02T16:49:27.655Z,29.23
2018-09-02T16:51:32.488Z,29.50
2018-09-02T16:53:37.370Z,29.92
2018-09-02T16:55:42.206Z,30.14
2018-09-02T16:57:47.330Z,30.48
2018-09-02T16:59:52.243Z,30.88
2018-09-02T17:01:57.111Z,31.75
2018-09-02T17:04:04.656Z,31.09
2018-09-02T17:06:09.638Z,31.41
2018-09-02T17:08:18.873Z,31.79
2018-09-02T17:10:23.975Z,31.00
2018-09-02T17:12:29.761Z,31.74
2018-09-02T17:14:34.903Z,31.82
2018-09-02T17:16:39.824Z,31.82
2018-09-02T17:18:44.758Z,31.79
2018-09-02T17:20:50.741Z,32.13
2018-09-02T17:22:59.485Z,32.01
2018-09-02T17:25:04.535Z,32.39
2018-09-02T17:27:10.339Z,32.76
2018-09-02T17:29:15.280Z,32.81
2018-09-02T17:31:20.666Z,32.76
2018-09-02T17:33:26.640Z,32.83
2018-09-02T17:35:33.542Z,33.04
2018-09-02T17:37:38.789Z,33.04
2018-09-02T17:39:44.316Z,33.38
2018-09-02T17:41:49.648Z,33.09
2018-09-02T17:43:55.119Z,33.68
2018-09-02T17:46:00.004Z,33.62
2018-09-02T17:48:04.876Z,33.36
2018-09-02T17:50:10.197Z,33.06
2018-09-02T17:52:15.893Z,33.76
2018-09-02T17:54:21.936Z,33.82
2018-09-02T17:56:27.552Z,34.22
2018-09-02T17:58:35.581Z,34.22
2018-09-02T18:00:47.413Z,34.02
2018-09-02T18:02:56.246Z,33.74
2018-09-02T18:05:01.826Z,34.15
2018-09-02T18:07:08.096Z,34.39
2018-09-02T18:09:17.618Z,34.03
2018-09-02T18:11:22.562Z,33.96
2018-09-02T18:13:29.126Z,33.93
2018-09-02T18:15:34.302Z,33.72
2018-09-02T18:17:39.135Z,34.56
2018-09-02T18:19:50.735Z,34.46
2018-09-02T18:21:55.934Z,34.27
2018-09-02T18:24:00.748Z,34.51
2018-09-02T18:26:06.470Z,34.74
2018-09-02T18:28:14.815Z,34.44
2018-09-02T18:30:19.639Z,34.67
2018-09-02T18:32:24.912Z,34.79
2018-09-02T18:34:29.856Z,35.06
2018-09-02T18:36:34.947Z,35.13
2018-09-02T18:38:40.680Z,34.92
2018-09-02T18:40:45.762Z,34.85
2018-09-02T18:42:53.384Z,34.90
2018-09-02T18:44:59.867Z,35.08
2018-09-02T18:47:05.304Z,35.67
2018-09-02T18:49:13.749Z,35.39
2018-09-02T18:51:19.777Z,35.43
2018-09-02T18:53:29.111Z,35.64
2018-09-02T18:55:34.591Z,35.38
2018-09-02T18:57:40.309Z,35.56
2018-09-02T18:59:45.815Z,35.74
2018-09-02T19:01:53.437Z,35.77
2018-09-02T19:03:59.243Z,35.94
2018-09-02T19:06:06.240Z,35.81
2018-09-02T19:08:14.563Z,35.91
2018-09-02T19:10:20.409Z,36.01
2018-09-02T19:12:27.154Z,35.84
2018-09-02T19:14:32.787Z,35.87
2018-09-02T19:16:37.755Z,36.35
2018-09-02T19:18:43.705Z,36.01
2018-09-02T19:20:49.780Z,36.71
2018-09-02T19:22:56.512Z,36.58
2018-09-02T19:25:04.543Z,36.80
2018-09-02T19:27:11.361Z,36.97
2018-09-02T19:29:17.378Z,36.74
2018-09-02T19:31:23.757Z,36.83
2018-09-02T19:33:30.819Z,36.85
2018-09-02T19:35:40.612Z,36.71
2018-09-02T19:37:47.423Z,37.04
2018-09-02T19:39:56.037Z,37.24
2018-09-02T19:42:01.017Z,36.73
2018-09-02T19:44:06.266Z,36.90
2018-09-02T19:46:14.305Z,37.14
2018-09-02T19:48:21.170Z,37.33
2018-09-02T19:50:30.414Z,36.79
2018-09-02T19:52:38.818Z,37.19
2018-09-02T19:54:44.695Z,37.16
2018-09-02T19:56:49.968Z,37.52
2018-09-02T19:58:56.750Z,37.52
2018-09-02T20:01:04.172Z,37.33
2018-09-02T20:03:12.850Z,37.90
2018-09-02T20:05:18.635Z,37.57
2018-09-02T20:07:26.097Z,37.89
2018-09-02T20:09:35.394Z,38.20
2018-09-02T20:11:40.655Z,38.29
2018-09-02T20:13:47.580Z,38.42
2018-09-02T20:15:52.896Z,38.87
2018-09-02T20:17:57.874Z,38.82
2018-09-02T20:20:02.699Z,39.21
2018-09-02T20:22:11.807Z,39.25
2018-09-02T20:24:16.907Z,39.36
2018-09-02T20:26:22.158Z,39.05
2018-09-02T20:28:27.351Z,39.19
2018-09-02T20:30:32.691Z,38.96
2018-09-02T20:32:37.849Z,39.39
2018-09-02T20:34:42.880Z,39.31
2018-09-02T20:36:47.961Z,39.58
2018-09-02T20:38:53.307Z,39.48
2018-09-02T20:40:58.350Z,39.79
2018-09-02T20:43:03.366Z,39.79
2018-09-02T20:45:08.784Z,39.69
2018-09-02T20:47:13.986Z,39.91
2018-09-02T20:49:18.797Z,39.97
2018-09-02T20:51:23.773Z,39.92
2018-09-02T20:53:29.036Z,40.12
2018-09-02T20:55:33.930Z,40.53
2018-09-02T20:57:38.832Z,40.25
2018-09-02T20:59:43.773Z,40.81
2018-09-02T21:01:48.754Z,40.81
2018-09-02T21:03:53.771Z,40.85
2018-09-02T21:05:58.842Z,40.63
2018-09-02T21:08:03.821Z,40.84
2018-09-02T21:10:08.766Z,40.81
2018-09-02T21:12:13.603Z,41.30
2018-09-02T21:14:19.960Z,41.29
2018-09-02T21:16:26.709Z,41.36
2018-09-02T21:18:32.209Z,41.35
2018-09-02T21:20:37.018Z,41.23
2018-09-02T21:22:41.917Z,41.69
2018-09-02T21:24:46.873Z,41.57
2018-09-02T21:26:51.988Z,41.52
2018-09-02T21:28:56.860Z,41.50
2018-09-02T21:31:01.823Z,41.71
2018-09-02T21:33:06.981Z,41.73
2018-09-02T21:35:11.855Z,41.76
2018-09-02T21:37:16.718Z,41.83
2018-09-02T21:39:21.475Z,42.08
2018-09-02T21:41:26.269Z,42.38
2018-09-02T21:43:31.196Z,42.15
2018-09-02T21:45:36.146Z,42.35
2018-09-02T21:47:40.912Z,42.21
2018-09-02T21:49:46.004Z,42.36
2018-09-02T21:51:50.771Z,42.15
2018-09-02T21:53:55.649Z,42.37
2018-09-02T21:56:00.537Z,42.39
2018-09-02T21:58:09.031Z,42.48
2018-09-02T22:00:16.244Z,42.77
2018-09-02T22:02:21.246Z,42.69
2018-09-02T22:04:26.154Z,42.70
2018-09-02T22:06:31.033Z,43.15
2018-09-02T22:08:36.354Z,43.12
2018-09-02T22:10:41.178Z,42.91
2018-09-02T22:12:46.005Z,43.25
2018-09-02T22:14:50.894Z,43.13
2018-09-02T22:16:55.825Z,43.43
2018-09-02T22:19:01.752Z,43.54
2018-09-02T22:21:06.676Z,43.52
2018-09-02T22:23:11.797Z,43.50
2018-09-02T22:25:16.845Z,43.50
2018-09-02T22:27:21.678Z,43.58
2018-09-02T22:29:26.893Z,44.01
2018-09-02T22:31:31.858Z,44.65
2018-09-02T22:33:36.976Z,44.79
2018-09-02T22:35:41.892Z,44.64
2018-09-02T22:37:46.637Z,45.20
2018-09-02T22:39:51.445Z,45.30
2018-09-02T22:41:56.297Z,45.11
2018-09-02T22:44:01.199Z,44.99
2018-09-02T22:46:06.021Z,45.14
2018-09-02T22:48:10.885Z,45.16
2018-09-02T22:50:17.967Z,45.45
2018-09-02T22:52:22.955Z,45.96
2018-09-02T22:54:27.864Z,46.18
2018-09-02T22:56:32.661Z,46.54
2018-09-02T22:58:37.505Z,46.43
2018-09-02T23:00:42.473Z,46.42
2018-09-02T23:02:47.291Z,46.50
2018-09-02T23:04:52.283Z,46.44
2018-09-02T23:06:57.066Z,46.76
2018-09-02T23:09:01.924Z,47.28
2018-09-02T23:11:06.955Z,47.31
2018-09-02T23:13:12.745Z,47.13
2018-09-02T23:15:17.860Z,47.16
2018-09-02T23:17:23.035Z,47.28
2018-09-02T23:19:27.992Z,47.43
2018-09-02T23:21:32.775Z,46.99
2018-09-02T23:23:37.935Z,47.34
2018-09-02T23:25:42.744Z,47.64
2018-09-02T23:27:47.612Z,48.01
2018-09-02T23:29:52.574Z,48.34
2018-09-02T23:31:57.343Z,48.26
2018-09-02T23:34:02.463Z,48.12
2018-09-02T23:36:07.413Z,48.50
2018-09-02T23:38:12.390Z,49.11
2018-09-02T23:40:17.334Z,49.05
2018-09-02T23:42:22.169Z,48.82
2018-09-02T23:44:26.956Z,49.13
2018-09-02T23:46:31.753Z,49.78
2018-09-02T23:48:36.786Z,49.61
2018-09-02T23:50:41.705Z,49.61
2018-09-02T23:52:46.428Z,49.42
2018-09-02T23:54:51.552Z,49.71
2018-09-02T23:56:56.472Z,49.86
2018-09-02T23:59:01.198Z,49.79
